Aviation Digital Data Service (ADDS)

Output produced by METARs form (0708 UTC 24 March 2019)
found at http://www.aviationweather.gov/metar/data/
 
TAF SBAT 240400Z 2406/2418 36005KT CAVOK TN24/2411Z TX31/2417Z 
     BECMG 2413/2415 33008KT 9999 BKN020 
     BECMG 2416/2418 SCT035 FEW040TCU RMK PFM
       
SBAN 240600Z 09009KT 9999 FEW010 BKN080 18/18 Q1018
TAF SBAN 240200Z 2406/2418 13005KT 2000 TS BR BKN004 FEW025CB TN18/2406Z
TX25/2417Z 
     BECMG 2412/2414 11008KT 7000 BKN020 RMK PDE
       
SBAR 240700Z 32004KT 9999 SCT017 26/24 Q1011
TAF SBAR 240400Z 2406/2418 03006KT 9999 BKN012 TN27/2309Z TX34/2314Z 
     BECMG 2408/2410 32005KT SCT012 SCT030 
     BECMG 2411/2413 SCT020 RMK PEO
       
TAF SBBW 240200Z 2406/2418 27005KT CAVOK TN25/2406Z TX33/2417Z 
     BECMG 2412/2414 18005KT 7000 FEW020 RMK PDE
       
SBBU 240600Z 10010KT CAVOK 21/21 Q1017
TAF SBBU 240300Z 2406/2418 11006KT CAVOK TN20/2409Z TX32/2418Z 
     TEMPO 2414/2416 9999 FEW035 RMK PDJ
       
SBBE 240700Z 05005KT 9999 FEW020 SCT100 23/23 Q1012
TAF SBBE 240400Z 2406/2506 06005KT CAVOK TN24/2407Z TX28/2418Z 
     BECMG 2409/2411 09008KT 9999 FEW010 
     BECMG 2415/2417 36008KT BKN020 FEW025TCU 
     BECMG 2421/2423 03008KT SCT020 RMK PFM
       
SBBH 240600Z 10006KT CAVOK 21/17 Q1018
SBCF 240700Z 13007KT CAVOK 19/17 Q1018
TAF SBCF 240200Z 2406/2506 12008KT 7000 FEW030 TN18/2409Z TX25/2417Z 
     BECMG 2412/2414 09007KT FEW040 
     BECMG 2418/2420 11008KT SCT030 
     BECMG 2500/2 502 11007KT SCT040 RMK PDE
       
SBBV 240600Z 09009KT CAVOK 28/18 Q1012
TAF SBBV 240400Z 2406/2506 09013KT CAVOK TN26/2409Z TX36/2419Z 
     BECMG 2415/2416 9999 SCT040 
     BECMG 2418/2420 12012KT 
     BECMG 2423/2501 09012KT CAVOK RMK PFM
       
TAF SBLP 240400Z 2406/2418 30005KT 9999 FEW030 TN29/2308Z TX38/2318Z 
     PROB30 
     TEMPO 2413/2417 SHRA SCT025 FEW030TCU RMK PEO
       
SBBR 240700Z 09007KT 9999 BKN007 21/20 Q1017
TAF SBBR 240200Z 2406/2506 08005KT 7000 SCT006 TN20/2406Z TX27/2415Z 
     BECMG 2412/2414 08007KT BKN020 
     BECMG 2418/2420 05007KT BKN030 
     BECMG 2500/2502 18005KT SCT004 RMK PDE
       
TAF SBCB 240215Z 2406/2506 05005KT 7000 FEW015 TN22/2409Z TX29/2416Z 
     BECMG 2409/2411 9999 FEW020 
     BECMG 2413/2415 09012KT 
     BECMG 2420/2422 06005K T RMK PHC
       
SBKG 240600Z 35004KT 9999 SCT020 24/21 Q1014
TAF SBKG 232200Z 2400/2412 06005KT CAVOK TN23/2405Z TX28/2412Z 
     BECMG 2401/2403 15003KT 9999 SCT010 
     BECMG 2405/2407 27005KT CAVOK 
     BECMG 2409/2411 03007KT 9999 SCT020 RMK PDY
       
SBKP 240700Z 12010KT CAVOK 19/17 Q1016
TAF SBKP 240130Z 2406/2506 12010KT 8000 NSC TN18/2408Z TX30/2417Z 
     BECMG 2408/2410 02005KT 
     BECMG 2413/2415 34005KT 8000 FEW040 
     BECMG 2417/2419 24005KT 
     BECMG 2420/2422 13012KT NSC 
     BECMG 2500/2502 11010KT RMK PHG
       
SBCG 240700Z 10003KT 080V140 CAVOK 22/18 Q1015
TAF SBCG 240300Z 2406/2506 11007KT CAVOK TN20/2409Z TX33/2418Z 
     BECMG 2412/2414 9999 FEW040 
     BECMG 2421/2423 CAVOK RMK PDJ
       
TAF SBCP 240215Z 2406/2418 24004KT 8000 FEW020 TN23/2409Z TX30/2418Z 
     BECMG 2410/2412 07005KT 
     BECMG 2413/2416 11010KT SCT025 RMK PHC
       
SBCH 240300Z 00000KT CAVOK 19/16 Q1017
TAF SBCR 240300Z 2406/2506 24006KT CAVOK TN22/2408Z TX34/2418Z 
     TEMPO 2406/2412 00000KT 
     BECMG 2412/2414 15007KT RMK PDJ
       
SBCZ 240625Z 00000KT 9999 SCT008 BKN100 24/24 Q1014
SBCY 240700Z 00000KT CAVOK 27/24 Q1012
TAF SBCY 240400Z 2406/2506 33007KT CAVOK TN26/2408Z TX35/2418Z 
     BECMG 2409/2411 36006KT 
     BECMG 2414/2416 SCT020 
     BECMG 2418/2420 33010KT SCT020 FEW025TCU 
     BECMG 2423/2501 33005KT CAVOK RMK PFM
       
SBCT 240700Z 03004KT 360V070 9999 SCT009 BKN013 17/16 Q1019
TAF SBCT 240300Z 2406/2506 08006KT 9999 BKN008 TN14/2409Z TX27/2418Z 
     PROB40 2406/2410 2000 BCFG BKN004 
     BECMG 2410/2412 24008KT SCT035 
     BECMG 2422 /2424 07005KT BKN008 RMK PDJ
       
SBBI 240300Z 07006KT 9999 BKN008 18/17 Q1020
TAF SBBI 240300Z 2406/2418 08004KT 9999 BKN008 TN16/2408Z TX28/2418Z 
     PROB40 2406/2410 2000 BCFG BKN004 
     BECMG 2410/2412 24008KT SCT035 RMK PDJ
       
TAF SBFN 240400Z 2406/2418 03006KT 9999 SCT010 TN25/2308Z TX31/2316Z 
     PROB40 
     TEMPO 2408/2411 4000 RA SCT012 FEW025TCU 
     BECMG 2413/2415 36005KT 8000 SCT020 RMK PEO
       
SBFL 240700Z 30002KT 9999 FEW030 20/18 Q1015
TAF SBFL 240300Z 2406/2506 34007KT CAVOK TN20/2408Z TX28/2417Z 
     PROB40 2406/2408 8000 BKN010 BKN020 
     BECMG 2408/2410 9999 FEW030 
     BECMG 2412/ 2414 04010KT 
     TEMPO 2422/2502 BKN030 RMK PDJ
       
SBFZ 240700Z 25003KT 9999 SCT020 25/23 Q1011
TAF SBFZ 240400Z 2406/2506 29005KT 9999 SCT017 TN25/2407Z TX30/2416Z 
     BECMG 2408/2410 27005KT 6000 SHRA SCT015 FEW025TCU 
     BECMG 2413/2415 33007KT BKN020 FEW027TCU 
     BECMG 2420/2422 SCT017 RMK PEO
       
SBFI 240700Z 13004KT 7000 2000SE BCFG NSC 21/20 Q1014
TAF SBFI 240300Z 2406/2506 11005KT CAVOK TN18/2409Z TX30/2418Z 
     PROB40 2408/2411 0500 FG BKN002 
     BECMG 2412/2414 9999 SCT030 FEW035TCU 
     BECMG 2420/2422 CAVOK RMK PDJ
       
SBGO 240700Z 11006KT 9999 BKN015 23/21 Q1015
TAF SBGO 240200Z 2406/2506 14005KT 7000 BKN010 TN22/2409Z TX30/2417Z 
     BECMG 2412/2414 11007KT BKN030 
     BECMG 2418/2420 SCT040 
     BECMG 2500/2502 1400 5KT SCT015 RMK PDE
       
TAF SBGW 240300Z 2406/2418 05007KT 9999 SCT025 TN20/2408Z TX30/2418Z 
     PROB40 2406/2410 2000 BR BKN006 
     BECMG 2412/2414 14008KT 
     TEMPO 2416/2418 SCT030 FEW035TCU RMK PDJ
       
SBIL 240600Z 22002KT 9999 FEW020 BKN040 25/24 Q1011
TAF SBIL 240400Z 2406/2418 27005KT 9999 SCT020 TN25/2308Z TX30/2314Z 
     PROB40 
     TEMPO 2408/2412 4000 RA BKN015 FEW025TCU 
     BECMG 2412/2414 19009KT 9999 SCT020 FEW030TCU RMK PEO
       
SBIZ 240600Z 00000KT 9999 SCT010 BKN100 25/25 Q1012
TAF SBIZ 240400Z 2406/2418 00000KT 9999 FEW020 TN24/2407Z TX31/2418Z 
     BECMG 2411/2413 09007KT BKN015 
     BECMG 2416/2418 06007KT RMK PFM
       
TAF SBIH 240400Z 2406/2418 00000KT 9999 FEW010 TN25/2411Z TX31/2418Z 
     BECMG 2412/2414 SCT020 RMK PFM